createdAt,value
2019-03-19T00:00:04.206Z,1.50
2019-03-19T00:02:31.299Z,1.37
2019-03-19T00:04:58.407Z,1.13
2019-03-19T00:07:25.487Z,1.03
2019-03-19T00:09:52.589Z,1.10
2019-03-19T00:12:19.729Z,1.17
2019-03-19T00:14:46.829Z,1.20
2019-03-19T00:17:13.909Z,1.30
2019-03-19T00:19:41.044Z,1.17
2019-03-19T00:22:08.138Z,1.10
2019-03-19T00:24:35.243Z,1.10
2019-03-19T00:27:02.317Z,1.30
2019-03-19T00:29:29.413Z,1.10
2019-03-19T00:31:56.490Z,1.10
2019-03-19T00:34:23.577Z,1.20
2019-03-19T00:36:50.681Z,1.17
2019-03-19T00:39:17.805Z,1.50
2019-03-19T00:41:44.897Z,1.37
2019-03-19T00:44:11.964Z,1.20
2019-03-19T00:46:39.076Z,1.10
2019-03-19T00:49:06.939Z,1.23
2019-03-19T00:51:33.269Z,1.57
2019-03-19T00:54:00.364Z,1.03
2019-03-19T00:56:27.461Z,1.30
2019-03-19T00:58:54.521Z,1.13
2019-03-19T01:01:21.601Z,1.33
2019-03-19T01:03:48.685Z,1.20
2019-03-19T01:06:15.769Z,1.30
2019-03-19T01:08:42.913Z,1.57
2019-03-19T01:11:10.012Z,1.00
2019-03-19T01:13:37.105Z,1.10
2019-03-19T01:16:04.167Z,1.10
2019-03-19T01:18:31.274Z,1.10
2019-03-19T01:20:58.357Z,1.23
2019-03-19T01:23:25.453Z,1.07
2019-03-19T01:25:55.503Z,1.30
2019-03-19T01:28:19.665Z,1.40
2019-03-19T01:30:46.765Z,1.40
2019-03-19T01:33:13.860Z,0.93
2019-03-19T01:35:40.962Z,1.40
2019-03-19T01:38:08.056Z,1.50
2019-03-19T01:40:35.148Z,1.60
2019-03-19T01:43:02.260Z,1.00
2019-03-19T01:45:29.333Z,1.50
2019-03-19T01:47:56.439Z,1.30
2019-03-19T01:50:23.532Z,1.20
2019-03-19T01:52:50.615Z,1.60
2019-03-19T01:55:17.724Z,1.10
2019-03-19T01:57:44.817Z,1.40
2019-03-19T02:00:11.977Z,1.53
2019-03-19T02:02:39.077Z,1.40
2019-03-19T02:05:06.251Z,1.47
2019-03-19T02:07:33.299Z,1.30
2019-03-19T02:10:00.438Z,1.20
2019-03-19T02:12:27.520Z,1.10
2019-03-19T02:14:54.594Z,1.33
2019-03-19T02:17:21.676Z,1.20
2019-03-19T02:19:48.783Z,1.27
2019-03-19T02:22:15.870Z,1.00
2019-03-19T02:24:43.006Z,1.47
2019-03-19T02:27:10.103Z,1.53
2019-03-19T02:29:37.242Z,1.33
2019-03-19T02:32:04.339Z,1.33
2019-03-19T02:34:31.438Z,1.10
2019-03-19T02:36:58.534Z,1.40
2019-03-19T02:39:25.616Z,1.23
2019-03-19T02:41:52.712Z,1.33
2019-03-19T02:44:19.841Z,1.27
2019-03-19T02:46:46.949Z,1.30
2019-03-19T02:49:14.036Z,1.20
2019-03-19T02:51:41.129Z,1.00
2019-03-19T02:54:08.209Z,1.00
2019-03-19T02:56:35.314Z,1.20
2019-03-19T02:59:02.390Z,1.30
2019-03-19T03:01:29.481Z,1.30
2019-03-19T03:03:56.560Z,0.87
2019-03-19T03:06:23.669Z,1.53
2019-03-19T03:08:50.761Z,1.40
2019-03-19T03:11:17.880Z,0.97
2019-03-19T03:13:44.975Z,1.50
2019-03-19T03:16:12.086Z,1.73
2019-03-19T03:18:39.191Z,1.07
2019-03-19T03:21:06.303Z,1.10
2019-03-19T03:23:33.428Z,1.83
2019-03-19T03:26:00.528Z,1.30
2019-03-19T03:28:27.626Z,1.10
2019-03-19T03:30:54.725Z,1.70
2019-03-19T03:33:21.790Z,1.37
2019-03-19T03:35:48.931Z,1.20
2019-03-19T03:38:16.034Z,1.77
2019-03-19T03:40:43.127Z,1.40
2019-03-19T03:43:10.228Z,1.43
2019-03-19T03:45:37.314Z,1.40
2019-03-19T03:48:04.433Z,1.27
2019-03-19T03:50:31.568Z,1.30
2019-03-19T03:52:58.671Z,1.53
2019-03-19T03:55:25.771Z,1.30
2019-03-19T03:57:52.888Z,1.33
2019-03-19T04:00:20.011Z,1.27
2019-03-19T04:02:47.158Z,1.17
2019-03-19T04:05:14.273Z,1.40
2019-03-19T04:07:41.389Z,1.10
2019-03-19T04:10:09.441Z,1.60
2019-03-19T04:12:36.509Z,1.40
2019-03-19T04:15:04.114Z,1.30
2019-03-19T04:17:31.204Z,1.30
2019-03-19T04:19:58.319Z,1.20
2019-03-19T04:22:25.438Z,1.60
2019-03-19T04:24:52.558Z,1.20
2019-03-19T04:27:19.662Z,1.43
2019-03-19T04:29:46.745Z,1.33
2019-03-19T04:32:13.859Z,0.80
2019-03-19T04:34:47.705Z,1.17
2019-03-19T04:37:14.857Z,1.20
2019-03-19T04:39:41.921Z,1.10
2019-03-19T04:42:09.021Z,1.63
2019-03-19T04:44:36.110Z,1.00
2019-03-19T04:47:03.210Z,1.13
2019-03-19T04:49:30.303Z,1.33
2019-03-19T04:51:57.380Z,0.90
2019-03-19T04:54:24.466Z,1.20
2019-03-19T04:56:51.589Z,1.23
2019-03-19T04:59:18.684Z,1.77
2019-03-19T05:01:45.784Z,1.27
2019-03-19T05:04:12.874Z,1.40
2019-03-19T05:06:39.997Z,1.33
2019-03-19T05:09:07.402Z,1.43
2019-03-19T05:11:34.488Z,1.00
2019-03-19T05:14:01.584Z,1.07
2019-03-19T05:16:28.709Z,1.50
2019-03-19T05:18:55.789Z,1.27
2019-03-19T05:21:22.861Z,1.20
2019-03-19T05:23:49.952Z,1.27
2019-03-19T05:26:17.048Z,0.97
2019-03-19T05:28:44.137Z,1.47
2019-03-19T05:31:11.261Z,1.50
2019-03-19T05:33:38.367Z,0.93
2019-03-19T05:36:05.477Z,1.00
2019-03-19T05:38:32.610Z,1.70
2019-03-19T05:40:59.689Z,1.40
2019-03-19T05:43:26.772Z,1.40
2019-03-19T05:45:53.861Z,1.50
2019-03-19T05:48:21.880Z,1.10
2019-03-19T05:50:48.999Z,1.27
2019-03-19T05:53:16.081Z,0.90
2019-03-19T05:55:43.221Z,0.90
2019-03-19T05:58:10.319Z,1.17
2019-03-19T06:00:37.544Z,1.50
2019-03-19T06:03:04.635Z,1.37
2019-03-19T06:05:31.756Z,1.20
2019-03-19T06:07:58.847Z,1.80
2019-03-19T06:10:26.232Z,1.67
2019-03-19T06:12:53.069Z,1.30
2019-03-19T06:15:20.185Z,1.17
2019-03-19T06:17:47.297Z,1.10
2019-03-19T06:20:14.412Z,1.60
2019-03-19T06:22:41.525Z,1.27
2019-03-19T06:25:08.697Z,1.17
2019-03-19T06:27:35.782Z,1.10
2019-03-19T06:30:03.538Z,1.40
2019-03-19T06:32:30.609Z,1.10
2019-03-19T06:34:57.723Z,1.10
2019-03-19T06:37:24.892Z,1.40
2019-03-19T06:39:52.020Z,1.27
2019-03-19T06:42:19.172Z,1.20
2019-03-19T06:44:46.306Z,1.43
2019-03-19T06:47:13.429Z,1.03
2019-03-19T06:49:40.600Z,1.30
2019-03-19T06:52:07.708Z,1.70
2019-03-19T06:54:34.789Z,1.00
2019-03-19T06:57:01.899Z,1.00
2019-03-19T06:59:28.986Z,1.30
2019-03-19T07:01:56.089Z,1.37
2019-03-19T07:04:23.169Z,1.40
2019-03-19T07:06:50.322Z,1.20
2019-03-19T07:09:17.517Z,1.60
2019-03-19T07:11:44.637Z,1.50
2019-03-19T07:14:11.758Z,1.60
2019-03-19T07:16:38.906Z,1.00
2019-03-19T07:19:06.011Z,1.53
2019-03-19T07:21:33.096Z,1.53
2019-03-19T07:24:00.185Z,1.10
2019-03-19T07:26:27.301Z,1.37
2019-03-19T07:28:54.385Z,1.30
2019-03-19T07:31:30.337Z,1.70
2019-03-19T07:33:48.648Z,1.27
2019-03-19T07:36:15.713Z,1.47
2019-03-19T07:38:42.814Z,1.67
2019-03-19T07:41:09.904Z,1.40
2019-03-19T07:43:37.001Z,1.10
2019-03-19T07:46:04.109Z,1.20
2019-03-19T07:48:31.183Z,1.13
2019-03-19T07:50:58.314Z,1.10
2019-03-19T07:53:25.438Z,1.23
2019-03-19T07:55:53.483Z,1.60
2019-03-19T07:58:19.641Z,1.53
2019-03-19T08:00:46.814Z,1.33
2019-03-19T08:03:16.300Z,1.47
2019-03-19T08:05:41.049Z,1.07
2019-03-19T08:08:08.171Z,1.23
2019-03-19T08:10:35.261Z,1.43
2019-03-19T08:13:02.387Z,1.20
2019-03-19T08:15:29.486Z,1.20
2019-03-19T08:17:56.605Z,0.80
2019-03-19T08:20:23.701Z,1.03
2019-03-19T08:22:50.820Z,1.37
2019-03-19T08:25:17.973Z,1.53
2019-03-19T08:27:45.082Z,1.57
2019-03-19T08:30:13.892Z,1.40
2019-03-19T08:32:40.964Z,1.43
2019-03-19T08:35:08.154Z,1.83
2019-03-19T08:37:35.234Z,1.20
2019-03-19T08:40:02.339Z,1.10
2019-03-19T08:42:29.437Z,1.53
2019-03-19T08:44:56.533Z,1.40
2019-03-19T08:47:23.620Z,1.50
2019-03-19T08:49:50.708Z,1.40
2019-03-19T08:52:17.797Z,1.30
2019-03-19T08:54:44.938Z,1.73
2019-03-19T08:57:12.026Z,1.27
2019-03-19T08:59:39.114Z,1.40
2019-03-19T09:02:06.231Z,1.50
2019-03-19T09:04:33.338Z,1.97
2019-03-19T09:07:00.441Z,1.33
2019-03-19T09:09:27.560Z,1.20
2019-03-19T09:11:54.644Z,1.00
2019-03-19T09:14:21.713Z,1.37
2019-03-19T09:16:48.796Z,1.13
2019-03-19T09:19:15.896Z,1.37
2019-03-19T09:21:42.980Z,1.40
2019-03-19T09:24:10.085Z,1.60
2019-03-19T09:26:37.198Z,1.20
2019-03-19T09:29:04.290Z,1.73
2019-03-19T09:31:31.389Z,1.53
2019-03-19T09:33:58.511Z,1.43
2019-03-19T09:36:25.605Z,1.30
2019-03-19T09:38:52.731Z,1.20
2019-03-19T09:41:19.797Z,1.07
2019-03-19T09:43:46.888Z,1.80
2019-03-19T09:46:13.949Z,1.40
2019-03-19T09:48:41.031Z,1.60
2019-03-19T09:51:08.128Z,1.60
2019-03-19T09:53:35.221Z,1.50
2019-03-19T09:56:02.329Z,1.30
2019-03-19T09:58:29.413Z,1.50
2019-03-19T10:00:56.541Z,1.20
2019-03-19T10:03:23.620Z,1.27
2019-03-19T10:05:50.729Z,1.43
2019-03-19T10:08:17.825Z,0.93
2019-03-19T10:10:44.904Z,1.27
2019-03-19T10:13:12.072Z,1.17
2019-03-19T10:15:39.175Z,1.60
2019-03-19T10:18:06.259Z,1.37
2019-03-19T10:20:33.355Z,1.50
2019-03-19T10:23:00.469Z,1.00
2019-03-19T10:25:27.564Z,1.13
2019-03-19T10:28:01.425Z,1.00
2019-03-19T10:30:28.517Z,1.13
2019-03-19T10:32:55.607Z,1.57
2019-03-19T10:35:22.692Z,1.33
2019-03-19T10:37:49.856Z,1.23
2019-03-19T10:40:17.622Z,1.53
2019-03-19T10:42:44.772Z,1.40
2019-03-19T10:45:11.941Z,1.40
2019-03-19T10:47:39.034Z,1.43
2019-03-19T10:50:09.337Z,1.10
2019-03-19T10:52:36.437Z,0.73
2019-03-19T10:55:03.630Z,1.20
2019-03-19T10:57:30.782Z,0.97
2019-03-19T11:00:04.445Z,1.13
2019-03-19T11:02:31.545Z,1.13
2019-03-19T11:04:58.641Z,0.97
2019-03-19T11:07:25.729Z,1.20
2019-03-19T11:09:52.844Z,1.23
2019-03-19T11:12:19.929Z,1.30
2019-03-19T11:14:47.029Z,1.07
2019-03-19T11:17:14.109Z,0.93
2019-03-19T11:19:41.196Z,1.27
2019-03-19T11:22:08.273Z,1.10
2019-03-19T11:24:35.390Z,1.13
2019-03-19T11:27:02.521Z,0.97
2019-03-19T11:29:29.604Z,1.13
2019-03-19T11:31:56.700Z,1.00
2019-03-19T11:34:23.798Z,0.80
2019-03-19T11:36:57.698Z,1.50
2019-03-19T11:39:18.001Z,1.10
2019-03-19T11:41:45.092Z,1.13
2019-03-19T11:44:12.205Z,1.00
2019-03-19T11:46:39.301Z,1.50
2019-03-19T11:49:06.423Z,1.43
2019-03-19T11:51:33.554Z,1.03
2019-03-19T11:54:00.686Z,1.10
2019-03-19T11:56:27.798Z,1.10
2019-03-19T11:58:54.877Z,1.43
2019-03-19T12:01:21.984Z,1.00
2019-03-19T12:03:49.075Z,0.87
2019-03-19T12:06:16.157Z,1.03
2019-03-19T12:08:43.252Z,0.80
2019-03-19T12:11:10.369Z,1.13
2019-03-19T12:13:37.488Z,0.87
2019-03-19T12:16:04.597Z,0.97
2019-03-19T12:18:31.697Z,0.83
2019-03-19T12:20:58.800Z,1.07
2019-03-19T12:23:25.912Z,1.03
2019-03-19T12:25:53.005Z,1.10
2019-03-19T12:28:20.100Z,1.00
2019-03-19T12:30:47.202Z,0.90
2019-03-19T12:33:14.291Z,0.80
2019-03-19T12:35:41.381Z,0.90
2019-03-19T12:38:08.469Z,0.90
2019-03-19T12:40:37.245Z,1.30
2019-03-19T12:43:02.713Z,1.40
2019-03-19T12:45:29.927Z,0.87
2019-03-19T12:47:57.004Z,0.67
2019-03-19T12:50:24.146Z,1.43
2019-03-19T12:52:51.233Z,0.77
2019-03-19T12:55:18.370Z,0.73
2019-03-19T12:57:45.469Z,1.10
2019-03-19T13:00:14.473Z,1.37
2019-03-19T13:02:41.603Z,1.13
2019-03-19T13:05:08.712Z,1.13
2019-03-19T13:07:35.809Z,0.80
2019-03-19T13:10:04.281Z,0.80
2019-03-19T13:12:31.381Z,0.70
2019-03-19T13:14:58.473Z,0.90
2019-03-19T13:17:25.608Z,1.10
2019-03-19T13:19:52.701Z,1.10
2019-03-19T13:22:19.809Z,1.17
2019-03-19T13:24:46.909Z,0.70
2019-03-19T13:27:14.016Z,1.10
2019-03-19T13:29:41.174Z,1.10
2019-03-19T13:32:08.269Z,1.00
2019-03-19T13:34:35.365Z,0.90
2019-03-19T13:37:02.469Z,1.07
2019-03-19T13:39:29.584Z,1.33
2019-03-19T13:41:56.698Z,1.10
2019-03-19T13:44:23.787Z,0.83
2019-03-19T13:46:50.877Z,1.37
2019-03-19T13:49:17.965Z,0.70
2019-03-19T13:51:45.052Z,1.00
2019-03-19T13:54:12.220Z,0.80
2019-03-19T13:56:39.313Z,0.87
2019-03-19T13:59:06.411Z,1.00
2019-03-19T14:01:33.530Z,1.00
2019-03-19T14:04:00.688Z,0.60
2019-03-19T14:06:27.794Z,0.77
2019-03-19T14:08:54.884Z,1.00
2019-03-19T14:11:21.990Z,0.90
2019-03-19T14:13:49.148Z,1.10
2019-03-19T14:16:39.079Z,0.70
2019-03-19T14:19:11.100Z,0.63
2019-03-19T14:21:38.288Z,0.90
2019-03-19T14:24:05.490Z,0.57
2019-03-19T14:26:32.616Z,0.80
2019-03-19T14:28:59.713Z,1.27
2019-03-19T14:31:26.829Z,0.83
2019-03-19T14:33:53.904Z,0.70
2019-03-19T14:36:20.991Z,1.00
2019-03-19T14:38:48.120Z,1.03
2019-03-19T14:41:15.228Z,1.07
2019-03-19T14:43:42.321Z,0.67
2019-03-19T14:46:09.391Z,0.67
2019-03-19T14:48:36.491Z,0.87
2019-03-19T14:51:03.649Z,0.60
2019-03-19T14:53:30.749Z,1.00
2019-03-19T14:55:57.848Z,0.93
2019-03-19T14:58:24.965Z,0.60
2019-03-19T15:00:52.079Z,0.70
2019-03-19T15:03:19.169Z,0.80
2019-03-19T15:05:46.256Z,0.90
2019-03-19T15:08:13.393Z,0.90
2019-03-19T15:10:40.502Z,1.20
2019-03-19T15:13:07.674Z,0.80
2019-03-19T15:15:34.749Z,0.90
2019-03-19T15:18:01.854Z,0.80
2019-03-19T15:20:28.935Z,0.73
2019-03-19T15:22:56.040Z,0.70
2019-03-19T15:25:23.147Z,0.93
2019-03-19T15:27:50.227Z,0.70
2019-03-19T15:30:17.393Z,0.70
2019-03-19T15:32:44.577Z,0.93
2019-03-19T15:35:11.702Z,0.90
2019-03-19T15:37:38.825Z,0.93
2019-03-19T15:40:07.724Z,0.70
2019-03-19T15:42:34.813Z,1.07
2019-03-19T15:45:01.960Z,0.70
2019-03-19T15:47:29.036Z,0.80
2019-03-19T15:49:56.157Z,0.87
2019-03-19T15:52:23.249Z,0.80
2019-03-19T15:54:50.337Z,0.90
2019-03-19T15:57:17.424Z,0.60
2019-03-19T15:59:44.516Z,0.67
2019-03-19T16:02:11.621Z,1.10
2019-03-19T16:04:38.729Z,0.83
2019-03-19T16:07:05.827Z,0.70
2019-03-19T16:09:32.917Z,0.97
2019-03-19T16:12:00.009Z,1.00
2019-03-19T16:14:27.096Z,0.70
2019-03-19T16:16:54.188Z,0.90
2019-03-19T16:19:21.281Z,0.87
2019-03-19T16:21:48.387Z,0.87
2019-03-19T16:24:15.500Z,0.70
2019-03-19T16:26:42.580Z,0.70
2019-03-19T16:29:09.669Z,0.87
2019-03-19T16:31:36.750Z,0.73
2019-03-19T16:34:03.841Z,1.00
2019-03-19T16:36:30.933Z,0.70
2019-03-19T16:38:58.042Z,0.80
2019-03-19T16:41:25.117Z,0.73
2019-03-19T16:43:52.209Z,0.77
2019-03-19T16:46:19.305Z,0.50
2019-03-19T16:48:46.414Z,1.00
2019-03-19T16:51:13.501Z,0.70
2019-03-19T16:53:40.608Z,0.70
2019-03-19T16:56:07.771Z,0.93
2019-03-19T16:58:34.836Z,1.07
2019-03-19T17:01:01.957Z,0.80
2019-03-19T17:03:29.038Z,0.90
2019-03-19T17:05:56.123Z,0.93
2019-03-19T17:08:23.232Z,0.77
2019-03-19T17:10:50.319Z,0.90
2019-03-19T17:13:17.449Z,1.17
2019-03-19T17:15:44.578Z,0.97
2019-03-19T17:18:11.687Z,0.97
2019-03-19T17:20:38.784Z,0.80
2019-03-19T17:23:05.891Z,1.03
2019-03-19T17:25:33.061Z,0.73
2019-03-19T17:28:00.121Z,0.80
2019-03-19T17:30:27.229Z,0.90
2019-03-19T17:32:54.357Z,0.97
2019-03-19T17:35:21.446Z,0.60
2019-03-19T17:37:48.551Z,0.63
2019-03-19T17:40:15.665Z,0.60
2019-03-19T17:42:42.787Z,0.70
2019-03-19T17:45:09.923Z,1.00
2019-03-19T17:47:37.029Z,0.90
2019-03-19T17:50:05.326Z,0.60
2019-03-19T17:52:32.486Z,0.80
2019-03-19T17:54:59.506Z,1.07
2019-03-19T17:57:26.610Z,0.87
2019-03-19T17:59:53.732Z,1.23
2019-03-19T18:02:24.213Z,0.93
2019-03-19T18:04:47.916Z,1.20
2019-03-19T18:07:15.012Z,1.00
2019-03-19T18:09:42.122Z,1.00
2019-03-19T18:12:09.281Z,1.50
2019-03-19T18:14:36.356Z,1.10
2019-03-19T18:17:03.494Z,1.10
2019-03-19T18:19:30.593Z,0.97
2019-03-19T18:21:57.684Z,0.97
2019-03-19T18:24:24.777Z,1.20
2019-03-19T18:26:51.861Z,1.30
2019-03-19T18:29:18.946Z,0.80
2019-03-19T18:31:46.034Z,1.70
2019-03-19T18:34:13.149Z,1.33
2019-03-19T18:36:40.241Z,0.90
2019-03-19T18:39:07.632Z,1.10
2019-03-19T18:41:34.736Z,0.87
2019-03-19T18:44:01.859Z,1.17
2019-03-19T18:46:28.977Z,0.93
2019-03-19T18:48:56.080Z,1.20
2019-03-19T18:51:23.162Z,1.00
2019-03-19T18:53:50.272Z,1.60
2019-03-19T18:56:17.350Z,1.07
2019-03-19T18:58:44.471Z,1.10
2019-03-19T19:01:11.584Z,1.50
2019-03-19T19:03:40.330Z,1.17
2019-03-19T19:06:05.796Z,1.30
2019-03-19T19:08:32.911Z,1.30
2019-03-19T19:11:00.044Z,1.30
2019-03-19T19:13:27.138Z,1.00
2019-03-19T19:15:54.237Z,1.23
2019-03-19T19:18:21.358Z,1.10
2019-03-19T19:20:48.496Z,1.10
2019-03-19T19:23:15.627Z,1.73
2019-03-19T19:25:42.764Z,1.30
2019-03-19T19:28:09.876Z,1.33
2019-03-19T19:30:36.980Z,1.40
2019-03-19T19:33:04.125Z,1.70
2019-03-19T19:35:31.233Z,1.20
2019-03-19T19:37:58.343Z,1.30
2019-03-19T19:40:25.439Z,1.67
2019-03-19T19:42:52.546Z,1.77
2019-03-19T19:45:19.652Z,1.30
2019-03-19T19:47:46.829Z,1.37
2019-03-19T19:50:14.069Z,1.57
2019-03-19T19:52:41.155Z,1.40
2019-03-19T19:55:08.473Z,1.13
2019-03-19T19:57:35.596Z,2.03
2019-03-19T20:00:02.808Z,1.40
2019-03-19T20:02:29.907Z,1.40
2019-03-19T20:05:02.806Z,1.40
2019-03-19T20:07:24.160Z,1.67
2019-03-19T20:09:51.314Z,1.60
2019-03-19T20:12:18.422Z,1.57
2019-03-19T20:14:45.534Z,1.77
2019-03-19T20:17:12.643Z,1.67
2019-03-19T20:19:39.769Z,1.40
2019-03-19T20:22:06.879Z,1.87
2019-03-19T20:24:33.972Z,1.33
2019-03-19T20:27:01.105Z,1.83
2019-03-19T20:29:28.201Z,1.97
2019-03-19T20:31:55.308Z,1.73
2019-03-19T20:34:22.421Z,1.90
2019-03-19T20:36:49.546Z,2.07
2019-03-19T20:39:16.677Z,1.60
2019-03-19T20:41:43.777Z,1.80
2019-03-19T20:44:10.868Z,1.70
2019-03-19T20:46:37.955Z,2.07
2019-03-19T20:49:05.072Z,1.77
2019-03-19T20:51:32.172Z,1.43
2019-03-19T20:53:59.272Z,2.07
2019-03-19T20:56:26.382Z,2.30
2019-03-19T20:58:53.469Z,2.03
2019-03-19T21:01:20.594Z,2.17
2019-03-19T21:03:47.721Z,1.87
2019-03-19T21:06:14.845Z,1.97
2019-03-19T21:08:41.961Z,2.20
2019-03-19T21:11:09.064Z,1.90
2019-03-19T21:13:36.177Z,1.97
2019-03-19T21:16:03.335Z,1.97
2019-03-19T21:18:30.428Z,2.07
2019-03-19T21:20:57.561Z,2.07
2019-03-19T21:23:25.039Z,2.07
2019-03-19T21:25:52.168Z,2.07
2019-03-19T21:28:19.275Z,2.57
2019-03-19T21:30:46.373Z,1.90
2019-03-19T21:33:13.540Z,2.50
2019-03-19T21:35:40.649Z,1.90
2019-03-19T21:38:07.744Z,1.90
2019-03-19T21:40:34.865Z,2.13
2019-03-19T21:43:01.977Z,2.10
2019-03-19T21:45:29.084Z,2.60
2019-03-19T21:47:56.181Z,2.40
2019-03-19T21:50:23.276Z,2.43
2019-03-19T21:52:50.387Z,2.30
2019-03-19T21:55:17.565Z,2.67
2019-03-19T21:57:44.668Z,2.67
2019-03-19T22:00:13.318Z,3.03
2019-03-19T22:02:40.434Z,2.67
2019-03-19T22:05:07.857Z,2.50
2019-03-19T22:07:34.979Z,2.87
2019-03-19T22:10:02.089Z,2.63
2019-03-19T22:12:29.181Z,2.60
2019-03-19T22:14:56.329Z,2.50
2019-03-19T22:17:23.422Z,2.93
2019-03-19T22:19:50.546Z,2.53
2019-03-19T22:22:17.653Z,2.70
2019-03-19T22:24:44.761Z,2.47
2019-03-19T22:27:11.857Z,2.57
2019-03-19T22:29:38.986Z,2.70
2019-03-19T22:32:06.080Z,2.90
2019-03-19T22:34:33.177Z,2.40
2019-03-19T22:37:00.314Z,2.40
2019-03-19T22:39:27.418Z,2.90
2019-03-19T22:41:54.521Z,2.60
2019-03-19T22:44:21.648Z,2.30
2019-03-19T22:46:48.776Z,2.60
2019-03-19T22:49:15.848Z,2.53
2019-03-19T22:51:42.977Z,2.60
2019-03-19T22:54:10.170Z,2.60
2019-03-19T22:56:37.312Z,2.70
2019-03-19T22:59:04.398Z,3.03
2019-03-19T23:01:31.537Z,2.77
2019-03-19T23:03:58.652Z,2.60
2019-03-19T23:06:25.750Z,2.40
2019-03-19T23:08:52.833Z,2.90
2019-03-19T23:11:19.928Z,3.03
2019-03-19T23:13:47.052Z,2.83
2019-03-19T23:16:14.136Z,2.67
2019-03-19T23:18:41.273Z,3.07
2019-03-19T23:21:08.347Z,2.57
2019-03-19T23:23:35.445Z,2.83
2019-03-19T23:26:02.533Z,2.63
2019-03-19T23:28:29.657Z,2.43
2019-03-19T23:30:56.813Z,2.73
2019-03-19T23:33:23.913Z,2.50
2019-03-19T23:35:51.014Z,2.20
2019-03-19T23:38:18.132Z,2.63
2019-03-19T23:40:45.233Z,2.63
2019-03-19T23:43:12.343Z,2.60
2019-03-19T23:45:39.448Z,2.90
2019-03-19T23:48:06.544Z,2.40
2019-03-19T23:50:33.642Z,2.57
2019-03-19T23:53:00.750Z,2.70
2019-03-19T23:55:27.842Z,2.50
2019-03-19T23:57:54.941Z,2.80
